Time;durP1;ratioP1;P1;durP2;ratioP2;P2;SDS_P1;SDS_P2;PMS_P1;PMS_P2;Temp;Humidity;BMP_temperature;BMP_pressure;BME280_temperature;BME280_humidity;BME280_pressure;Samples;Min_cycle;Max_cycle;Signal;HPM_P1;HPM_P2
2021/06/07 00:00:12;;;;;;;5.68;3.95;;;;;;;;;;350409;28;1122;-73
2021/06/07 00:00:25;;;;;;;5.13;3.90;;;;;;;;;;351505;28;1053;-74
2021/06/07 00:00:38;;;;;;;5.03;3.97;;;;;;;;;;351488;28;15947;-73
2021/06/07 00:00:50;;;;;;;5.53;4.35;;;;;;;;;;351820;28;1217;-73
2021/06/07 00:01:05;;;;;;;6.15;4.35;;;;;;;;;;351792;28;1058;-71
2021/06/07 00:01:19;;;;;;;5.47;4.18;;;;;;;;;;350464;28;39727;-73
2021/06/07 00:01:33;;;;;;;5.13;4.00;;;;;;;;;;353083;28;1066;-72
2021/06/07 00:01:47;;;;;;;5.88;4.07;;;;;;;;;;352001;27;41368;-72
2021/06/07 00:02:00;;;;;;;6.53;4.20;;;;;;;;;;352891;27;17305;-73
2021/06/07 00:02:12;;;;;;;6.13;4.00;;;;;;;;;;353443;27;1189;-72
2021/06/07 00:02:24;;;;;;;5.43;4.07;;;;;;;;;;353456;27;1071;-72
2021/06/07 00:02:36;;;;;;;4.93;3.92;;;;;;;;;;353579;27;997;-72
2021/06/07 00:02:48;;;;;;;4.80;4.00;;;;;;;;;;353382;28;1131;-72
2021/06/07 00:03:03;;;;;;;4.80;3.90;;;;;;;;;;350896;28;41186;-72
2021/06/07 00:03:18;;;;;;;6.72;4.10;;;;;;;;;;349741;28;63118;-73
2021/06/07 00:03:31;;;;;;;6.05;4.07;;;;;;;;;;352204;28;1088;-72
2021/06/07 00:03:43;;;;;;;5.50;4.05;;;;;;;;;;351877;28;1187;-72
2021/06/07 00:03:56;;;;;;;5.40;3.92;;;;;;;;;;351949;28;1140;-72
2021/06/07 00:04:08;;;;;;;5.32;3.80;;;;;;;;;;352269;28;1084;-72
2021/06/07 00:04:21;;;;;;;6.50;3.90;;;;;;;;;;351706;28;1074;-72
2021/06/07 00:04:33;;;;;;;6.60;4.00;;;;;;;;;;351814;28;1162;-73
2021/06/07 00:04:45;;;;;;;5.57;3.83;;;;;;;;;;351998;28;1184;-72
2021/06/07 00:04:57;;;;;;;5.07;3.65;;;;;;;;;;353347;28;1381;-72
2021/06/07 00:05:10;;;;;;;5.35;3.70;;;;;;;;;;351908;28;1179;-72
2021/06/07 00:05:22;;;;;;;4.65;3.70;;;;;;;;;;351732;28;1053;-72
2021/06/07 00:05:34;;;;;;;4.58;3.74;;;;;;;;;;351746;28;1249;-72
2021/06/07 00:05:47;;;;;;;4.15;3.60;;;;;;;;;;351951;28;1569;-72
2021/06/07 00:05:59;;;;;;;4.78;3.75;;;;;;;;;;351748;28;1277;-73
2021/06/07 00:06:11;;;;;;;4.93;3.83;;;;;;;;;;351935;28;1246;-72
2021/06/07 00:06:23;;;;;;;5.00;3.80;;;;;;;;;;351815;28;1647;-72
2021/06/07 00:06:37;;;;;;;4.63;3.90;;;;;;;;;;351762;28;1697;-72
2021/06/07 00:06:49;;;;;;;4.90;3.95;;;;;;;;;;351810;28;1068;-72
2021/06/07 00:07:01;;;;;;;5.28;4.00;;;;;;;;;;351979;28;1216;-72
2021/06/07 00:07:14;;;;;;;6.07;4.00;;;;;;;;;;351713;28;1669;-72
2021/06/07 00:07:26;;;;;;;6.68;4.00;;;;;;;;;;353073;28;1708;-73
2021/06/07 00:07:39;;;;;;;6.00;3.90;;;;;;;;;;351871;28;1572;-73
2021/06/07 00:07:51;;;;;;;5.57;3.90;;;;;;;;;;352864;28;1037;-72
2021/06/07 00:08:04;;;;;;;4.70;4.15;;;;;;;;;;353402;28;1033;-72
2021/06/07 00:08:16;;;;;;;5.07;4.20;;;;;;;;;;353212;28;1025;-72
2021/06/07 00:08:28;;;;;;;5.13;4.07;;;;;;;;;;353103;28;1140;-72
2021/06/07 00:08:40;;;;;;;4.97;3.75;;;;;;;;;;353269;28;1208;-72
2021/06/07 00:08:52;;;;;;;5.63;3.90;;;;;;;;;;351875;28;1084;-73
2021/06/07 00:09:06;;;;;;;5.28;3.88;;;;;;;;;;351989;28;1563;-72
2021/06/07 00:09:18;;;;;;;5.03;3.83;;;;;;;;;;351553;28;1117;-73
2021/06/07 00:09:31;;;;;;;4.93;3.67;;;;;;;;;;351940;28;1220;-72
2021/06/07 00:09:43;;;;;;;5.75;3.80;;;;;;;;;;351392;28;1025;-72
2021/06/07 00:09:55;;;;;;;6.00;3.92;;;;;;;;;;350420;28;1222;-72
2021/06/07 00:10:09;;;;;;;5.03;4.00;;;;;;;;;;350358;28;997;-71
2021/06/07 00:10:21;;;;;;;5.00;3.90;;;;;;;;;;350462;28;1076;-72
2021/06/07 00:10:33;;;;;;;5.38;3.92;;;;;;;;;;350551;28;1486;-72
2021/06/07 00:10:45;;;;;;;5.53;4.03;;;;;;;;;;350338;28;1178;-72
2021/06/07 00:10:58;;;;;;;5.78;3.90;;;;;;;;;;351653;28;2088;-73
2021/06/07 00:11:11;;;;;;;6.57;4.00;;;;;;;;;;351926;28;1293;-71
2021/06/07 00:11:23;;;;;;;6.70;4.00;;;;;;;;;;351648;28;1115;-74
2021/06/07 00:11:37;;;;;;;6.07;4.00;;;;;;;;;;351894;28;1129;-72
2021/06/07 00:11:51;;;;;;;5.96;3.94;;;;;;;;;;351184;28;17135;-72
2021/06/07 00:12:08;;;;;;;5.25;3.90;;;;;;;;;;353153;28;1142;-72
2021/06/07 00:12:20;;;;;;;5.82;4.13;;;;;;;;;;349831;28;62512;-72
2021/06/07 00:12:33;;;;;;;5.60;3.95;;;;;;;;;;351900;28;1104;-72
2021/06/07 00:12:45;;;;;;;5.28;3.85;;;;;;;;;;351754;28;1171;-72
2021/06/07 00:12:57;;;;;;;5.40;3.90;;;;;;;;;;351824;28;1307;-72
2021/06/07 00:13:10;;;;;;;5.05;4.00;;;;;;;;;;351832;28;1181;-72
2021/06/07 00:13:24;;;;;;;4.78;4.15;;;;;;;;;;351722;28;1124;-73
2021/06/07 00:13:37;;;;;;;4.78;4.03;;;;;;;;;;351487;28;15981;-73
2021/06/07 00:13:50;;;;;;;5.50;3.80;;;;;;;;;;352454;28;1241;-72
2021/06/07 00:14:02;;;;;;;5.45;3.67;;;;;;;;;;353181;28;1159;-72
2021/06/07 00:14:16;;;;;;;6.32;3.58;;;;;;;;;;351893;28;1251;-73
2021/06/07 00:14:31;;;;;;;6.45;3.70;;;;;;;;;;352691;28;16661;-73
2021/06/07 00:14:44;;;;;;;5.13;3.70;;;;;;;;;;351958;28;40913;-73
2021/06/07 00:14:56;;;;;;;4.07;3.58;;;;;;;;;;353064;28;1033;-73
2021/06/07 00:15:10;;;;;;;4.07;3.45;;;;;;;;;;351870;28;1566;-72
2021/06/07 00:15:23;;;;;;;5.85;3.60;;;;;;;;;;351498;28;16620;-73
2021/06/07 00:15:36;;;;;;;7.07;3.83;;;;;;;;;;351367;28;16664;-73
2021/06/07 00:15:48;;;;;;;6.78;3.70;;;;;;;;;;351849;28;1002;-72
2021/06/07 00:16:01;;;;;;;5.68;3.55;;;;;;;;;;351791;28;1196;-73
2021/06/07 00:16:13;;;;;;;5.93;3.80;;;;;;;;;;352027;28;2003;-73
2021/06/07 00:16:25;;;;;;;5.95;4.18;;;;;;;;;;353406;28;1072;-72
2021/06/07 00:16:37;;;;;;;5.35;4.00;;;;;;;;;;353181;28;1009;-73
2021/06/07 00:16:50;;;;;;;5.40;3.80;;;;;;;;;;351711;28;1974;-73
2021/06/07 00:17:03;;;;;;;6.32;3.88;;;;;;;;;;351838;28;1777;-72
2021/06/07 00:17:15;;;;;;;7.15;3.83;;;;;;;;;;354286;27;1612;-74
2021/06/07 00:17:28;;;;;;;6.07;3.90;;;;;;;;;;353212;28;1113;-72
2021/06/07 00:17:40;;;;;;;5.15;3.85;;;;;;;;;;353186;28;1184;-73
2021/06/07 00:17:52;;;;;;;6.22;3.97;;;;;;;;;;353276;28;1019;-73
2021/06/07 00:18:04;;;;;;;5.40;3.80;;;;;;;;;;353361;28;1136;-73
2021/06/07 00:18:17;;;;;;;4.82;3.75;;;;;;;;;;353304;28;1922;-72
2021/06/07 00:18:29;;;;;;;4.63;3.78;;;;;;;;;;353048;28;1138;-73
2021/06/07 00:18:41;;;;;;;4.80;3.85;;;;;;;;;;353159;28;1102;-73
2021/06/07 00:18:54;;;;;;;4.78;3.67;;;;;;;;;;353324;28;1167;-72
2021/06/07 00:19:14;;;;;;;5.13;3.70;;;;;;;;;;353329;28;1021;-74
2021/06/07 00:19:27;;;;;;;4.47;3.70;;;;;;;;;;351270;27;63742;-72
2021/06/07 00:19:40;;;;;;;3.90;3.47;;;;;;;;;;352840;27;17731;-72
2021/06/07 00:19:52;;;;;;;4.43;3.50;;;;;;;;;;353429;27;1967;-72
2021/06/07 00:20:10;;;;;;;4.78;3.85;;;;;;;;;;353241;28;976;-74
2021/06/07 00:20:34;;;;;;;6.25;3.80;;;;;;;;;;349848;28;63887;-72
2021/06/07 00:20:48;;;;;;;6.15;3.80;;;;;;;;;;349679;28;64025;-72
2021/06/07 00:21:06;;;;;;;5.35;3.75;;;;;;;;;;351372;28;16791;-72
2021/06/07 00:21:20;;;;;;;5.70;3.80;;;;;;;;;;348456;28;62448;-72
2021/06/07 00:21:32;;;;;;;6.10;3.68;;;;;;;;;;349878;28;16595;-72
2021/06/07 00:21:45;;;;;;;5.18;3.53;;;;;;;;;;350669;28;1068;-74
2021/06/07 00:21:58;;;;;;;5.30;3.70;;;;;;;;;;350559;28;984;-72
2021/06/07 00:22:10;;;;;;;5.70;3.70;;;;;;;;;;351899;28;1069;-72
2021/06/07 00:22:22;;;;;;;6.35;3.78;;;;;;;;;;351165;28;1088;-72
2021/06/07 00:22:34;;;;;;;6.15;3.95;;;;;;;;;;351743;28;981;-72
2021/06/07 00:22:46;;;;;;;5.47;3.63;;;;;;;;;;351914;28;1056;-72
2021/06/07 00:22:59;;;;;;;4.95;3.33;;;;;;;;;;351767;28;974;-72
2021/06/07 00:23:12;;;;;;;4.53;3.55;;;;;;;;;;351739;28;1134;-72
2021/06/07 00:23:24;;;;;;;4.97;3.83;;;;;;;;;;351693;28;1132;-72
2021/06/07 00:23:37;;;;;;;5.47;3.90;;;;;;;;;;351861;28;1099;-73
2021/06/07 00:23:50;;;;;;;5.50;3.85;;;;;;;;;;351743;28;1124;-72
2021/06/07 00:24:03;;;;;;;5.97;3.90;;;;;;;;;;351746;28;1185;-73
2021/06/07 00:24:16;;;;;;;5.50;4.00;;;;;;;;;;351867;28;1094;-73
2021/06/07 00:24:29;;;;;;;5.68;3.90;;;;;;;;;;352516;28;16278;-73
2021/06/07 00:24:41;;;;;;;5.93;3.80;;;;;;;;;;353267;28;1008;-73
2021/06/07 00:24:53;;;;;;;4.75;3.70;;;;;;;;;;354576;27;1372;-73
2021/06/07 00:25:07;;;;;;;5.28;3.95;;;;;;;;;;354608;27;1423;-73
2021/06/07 00:25:21;;;;;;;6.15;4.00;;;;;;;;;;354554;27;1080;-72
2021/06/07 00:25:33;;;;;;;6.57;3.97;;;;;;;;;;351991;28;40805;-73
2021/06/07 00:25:46;;;;;;;6.63;4.10;;;;;;;;;;351784;28;1085;-73
2021/06/07 00:25:58;;;;;;;5.70;3.92;;;;;;;;;;351891;28;1112;-73
2021/06/07 00:26:10;;;;;;;4.97;3.88;;;;;;;;;;351531;28;1100;-73
2021/06/07 00:26:25;;;;;;;5.60;3.90;;;;;;;;;;349216;28;40172;-73
2021/06/07 00:26:37;;;;;;;5.45;3.85;;;;;;;;;;350471;28;1088;-74
2021/06/07 00:26:49;;;;;;;5.68;3.90;;;;;;;;;;350597;28;1518;-74
2021/06/07 00:27:03;;;;;;;4.55;3.80;;;;;;;;;;347007;28;17590;-73
2021/06/07 00:27:15;;;;;;;5.15;3.80;;;;;;;;;;349186;28;1521;-73
2021/06/07 00:27:27;;;;;;;5.15;3.65;;;;;;;;;;349102;28;1063;-74
2021/06/07 00:27:39;;;;;;;5.05;3.67;;;;;;;;;;350558;28;1109;-73
2021/06/07 00:27:51;;;;;;;5.10;3.70;;;;;;;;;;352702;28;1434;-73
2021/06/07 00:28:03;;;;;;;5.18;3.70;;;;;;;;;;353132;28;1623;-73
2021/06/07 00:28:17;;;;;;;6.35;3.60;;;;;;;;;;353603;28;1177;-73
2021/06/07 00:28:29;;;;;;;7.22;3.67;;;;;;;;;;353164;28;1140;-73
2021/06/07 00:28:41;;;;;;;6.90;3.90;;;;;;;;;;353236;28;2217;-72
2021/06/07 00:28:54;;;;;;;5.28;4.10;;;;;;;;;;353219;28;1100;-73
2021/06/07 00:29:07;;;;;;;6.53;4.05;;;;;;;;;;353950;27;1089;-73
2021/06/07 00:29:19;;;;;;;6.43;3.95;;;;;;;;;;354777;27;1115;-73
2021/06/07 00:29:32;;;;;;;4.88;3.70;;;;;;;;;;354835;27;1125;-73
2021/06/07 00:29:44;;;;;;;3.95;3.55;;;;;;;;;;354985;27;1280;-73
2021/06/07 00:29:56;;;;;;;4.13;3.33;;;;;;;;;;354731;27;1189;-72
2021/06/07 00:30:08;;;;;;;4.90;3.13;;;;;;;;;;354860;27;1231;-73
2021/06/07 00:30:20;;;;;;;5.00;3.25;;;;;;;;;;353364;27;1350;-72
2021/06/07 00:30:33;;;;;;;5.53;3.47;;;;;;;;;;353425;27;1157;-73
2021/06/07 00:30:45;;;;;;;5.88;3.70;;;;;;;;;;353424;27;1050;-73
2021/06/07 00:30:59;;;;;;;5.60;3.67;;;;;;;;;;353779;28;1105;-73
2021/06/07 00:31:11;;;;;;;4.85;3.70;;;;;;;;;;353463;27;1064;-73
2021/06/07 00:31:23;;;;;;;4.82;3.60;;;;;;;;;;353688;27;1478;-74
2021/06/07 00:31:36;;;;;;;4.47;3.63;;;;;;;;;;353455;27;1017;-73
2021/06/07 00:31:48;;;;;;;5.53;3.70;;;;;;;;;;353497;27;1060;-73
2021/06/07 00:32:01;;;;;;;5.68;3.70;;;;;;;;;;353441;27;1200;-74
2021/06/07 00:32:13;;;;;;;6.00;3.80;;;;;;;;;;353410;27;1224;-73
2021/06/07 00:32:25;;;;;;;5.60;3.70;;;;;;;;;;353299;27;1078;-73
2021/06/07 00:32:37;;;;;;;4.70;3.88;;;;;;;;;;353304;27;1333;-72
2021/06/07 00:32:49;;;;;;;4.88;3.90;;;;;;;;;;353561;27;1096;-73
2021/06/07 00:33:02;;;;;;;4.22;3.65;;;;;;;;;;353496;27;1184;-72
2021/06/07 00:33:14;;;;;;;4.07;3.45;;;;;;;;;;353316;28;1175;-73
2021/06/07 00:33:27;;;;;;;5.00;3.40;;;;;;;;;;353209;28;1192;-73
2021/06/07 00:33:40;;;;;;;5.53;3.50;;;;;;;;;;353215;28;2027;-72
2021/06/07 00:33:52;;;;;;;5.97;3.70;;;;;;;;;;353178;28;1109;-73
2021/06/07 00:34:04;;;;;;;5.20;3.72;;;;;;;;;;353346;28;1259;-73
2021/06/07 00:34:16;;;;;;;4.93;3.60;;;;;;;;;;353095;28;1092;-73
2021/06/07 00:34:29;;;;;;;4.82;3.53;;;;;;;;;;353055;28;1854;-73
2021/06/07 00:34:41;;;;;;;5.68;3.63;;;;;;;;;;353275;28;2059;-72
2021/06/07 00:34:53;;;;;;;6.15;3.75;;;;;;;;;;353280;28;1152;-72
2021/06/07 00:35:06;;;;;;;6.45;3.88;;;;;;;;;;353612;28;1164;-72
2021/06/07 00:35:23;;;;;;;5.53;3.88;;;;;;;;;;353090;28;1138;-73
2021/06/07 00:35:35;;;;;;;5.57;3.88;;;;;;;;;;351111;28;63055;-73
2021/06/07 00:35:47;;;;;;;5.32;3.70;;;;;;;;;;351899;28;986;-73
2021/06/07 00:35:59;;;;;;;4.75;3.60;;;;;;;;;;351952;28;1076;-72
2021/06/07 00:36:13;;;;;;;4.57;3.60;;;;;;;;;;352107;28;1001;-73
2021/06/07 00:36:26;;;;;;;5.32;3.65;;;;;;;;;;350300;28;1057;-72
2021/06/07 00:36:38;;;;;;;5.20;3.70;;;;;;;;;;350517;28;1313;-73
2021/06/07 00:36:50;;;;;;;4.90;4.00;;;;;;;;;;350249;28;994;-73
2021/06/07 00:37:02;;;;;;;5.05;4.03;;;;;;;;;;350288;28;1002;-72
2021/06/07 00:37:18;;;;;;;5.47;3.70;;;;;;;;;;349401;28;39872;-73
2021/06/07 00:37:30;;;;;;;4.97;3.63;;;;;;;;;;350522;28;1088;-72
2021/06/07 00:37:43;;;;;;;5.20;3.97;;;;;;;;;;350362;28;1099;-72
2021/06/07 00:37:55;;;;;;;5.63;4.00;;;;;;;;;;351871;28;1206;-73
2021/06/07 00:38:07;;;;;;;5.80;3.80;;;;;;;;;;353094;28;1139;-73
2021/06/07 00:38:19;;;;;;;5.30;3.88;;;;;;;;;;354051;27;1875;-73
2021/06/07 00:38:31;;;;;;;4.80;3.92;;;;;;;;;;354407;27;1673;-73
2021/06/07 00:38:43;;;;;;;5.13;3.92;;;;;;;;;;351357;28;1649;-73
2021/06/07 00:38:56;;;;;;;4.63;3.58;;;;;;;;;;351946;28;1317;-73
2021/06/07 00:39:12;;;;;;;4.25;3.50;;;;;;;;;;351594;28;1298;-72
2021/06/07 00:39:24;;;;;;;5.40;3.90;;;;;;;;;;349739;28;63001;-73
2021/06/07 00:39:37;;;;;;;6.45;4.05;;;;;;;;;;350284;28;1591;-73
2021/06/07 00:39:51;;;;;;;5.78;3.83;;;;;;;;;;349245;28;39955;-72
2021/06/07 00:40:04;;;;;;;5.53;3.72;;;;;;;;;;348820;28;1541;-73
2021/06/07 00:40:17;;;;;;;5.04;3.88;;;;;;;;;;349469;28;1507;-72
2021/06/07 00:40:29;;;;;;;4.38;3.90;;;;;;;;;;347813;28;1112;-73
2021/06/07 00:40:41;;;;;;;4.88;3.65;;;;;;;;;;350564;28;1131;-73
2021/06/07 00:40:54;;;;;;;4.70;3.60;;;;;;;;;;350538;28;1042;-72
2021/06/07 00:41:07;;;;;;;4.90;3.70;;;;;;;;;;350473;28;1176;-73
2021/06/07 00:41:20;;;;;;;5.88;4.00;;;;;;;;;;350333;28;1093;-73
2021/06/07 00:41:32;;;;;;;5.38;3.90;;;;;;;;;;350431;28;1143;-73
2021/06/07 00:41:45;;;;;;;5.63;3.88;;;;;;;;;;351600;28;1074;-73
2021/06/07 00:41:58;;;;;;;5.00;3.70;;;;;;;;;;351193;28;16603;-73
2021/06/07 00:42:10;;;;;;;5.13;3.60;;;;;;;;;;352838;28;998;-73
2021/06/07 00:42:22;;;;;;;5.65;3.63;;;;;;;;;;353338;28;1840;-73
2021/06/07 00:42:34;;;;;;;5.88;3.70;;;;;;;;;;353292;28;1494;-72
2021/06/07 00:42:46;;;;;;;6.57;3.78;;;;;;;;;;353066;28;1160;-74
2021/06/07 00:42:59;;;;;;;7.03;3.97;;;;;;;;;;353255;28;1093;-73
2021/06/07 00:43:12;;;;;;;6.05;3.95;;;;;;;;;;353546;27;1179;-72
2021/06/07 00:43:24;;;;;;;5.63;3.80;;;;;;;;;;353565;27;1199;-73
2021/06/07 00:43:36;;;;;;;5.32;3.85;;;;;;;;;;353146;28;1140;-72
2021/06/07 00:43:56;;;;;;;5.72;3.67;;;;;;;;;;351932;28;1297;-72
2021/06/07 00:44:10;;;;;;;6.35;3.70;;;;;;;;;;348300;28;63714;-73
2021/06/07 00:44:23;;;;;;;5.72;3.70;;;;;;;;;;349755;28;17134;-72
2021/06/07 00:44:35;;;;;;;5.38;3.70;;;;;;;;;;348988;28;1551;-72
2021/06/07 00:44:47;;;;;;;5.00;3.72;;;;;;;;;;348920;28;1128;-73
2021/06/07 00:44:59;;;;;;;4.43;3.63;;;;;;;;;;349156;28;1018;-73
2021/06/07 00:45:13;;;;;;;4.22;3.50;;;;;;;;;;347604;28;1768;-72
2021/06/07 00:45:26;;;;;;;4.68;3.55;;;;;;;;;;347301;28;17758;-73
2021/06/07 00:45:40;;;;;;;4.93;3.75;;;;;;;;;;348374;28;1110;-72
2021/06/07 00:45:52;;;;;;;5.20;3.84;;;;;;;;;;349946;28;1009;-74
2021/06/07 00:46:05;;;;;;;5.43;3.83;;;;;;;;;;350357;28;1092;-72
2021/06/07 00:46:17;;;;;;;4.82;3.70;;;;;;;;;;351873;28;1097;-73
2021/06/07 00:46:29;;;;;;;6.20;3.90;;;;;;;;;;351689;28;1277;-73
2021/06/07 00:46:41;;;;;;;6.05;3.88;;;;;;;;;;352773;28;1197;-74
2021/06/07 00:46:53;;;;;;;6.65;3.90;;;;;;;;;;352020;28;1619;-73
2021/06/07 00:47:06;;;;;;;5.75;3.72;;;;;;;;;;351866;28;1172;-72
2021/06/07 00:47:18;;;;;;;5.25;3.80;;;;;;;;;;353203;28;1114;-73
2021/06/07 00:47:31;;;;;;;5.16;3.90;;;;;;;;;;351879;28;1181;-73
2021/06/07 00:47:44;;;;;;;5.15;3.90;;;;;;;;;;351802;28;1172;-74
2021/06/07 00:47:58;;;;;;;5.40;3.90;;;;;;;;;;351693;28;1026;-73
2021/06/07 00:48:10;;;;;;;5.53;3.97;;;;;;;;;;351874;28;1112;-75
2021/06/07 00:48:22;;;;;;;4.80;3.83;;;;;;;;;;351776;28;1143;-73
2021/06/07 00:48:36;;;;;;;4.43;3.75;;;;;;;;;;351738;28;1156;-73
2021/06/07 00:48:48;;;;;;;5.15;3.80;;;;;;;;;;351817;28;1084;-73
2021/06/07 00:49:01;;;;;;;5.03;3.70;;;;;;;;;;353295;28;1748;-73
2021/06/07 00:49:13;;;;;;;4.80;3.70;;;;;;;;;;352761;28;17198;-72
2021/06/07 00:49:25;;;;;;;5.30;3.83;;;;;;;;;;353275;28;1101;-73
2021/06/07 00:49:38;;;;;;;5.22;3.95;;;;;;;;;;353314;28;1131;-73
2021/06/07 00:49:50;;;;;;;5.25;3.90;;;;;;;;;;351886;28;1048;-72
2021/06/07 00:50:07;;;;;;;5.38;3.85;;;;;;;;;;350528;28;39785;-72
2021/06/07 00:50:24;;;;;;;6.32;3.95;;;;;;;;;;351265;28;16890;-73
2021/06/07 00:50:39;;;;;;;6.26;3.70;;;;;;;;;;348949;28;86673;-73
2021/06/07 00:50:55;;;;;;;4.22;3.83;;;;;;;;;;351717;28;17056;-74
2021/06/07 00:51:09;;;;;;;5.32;3.90;;;;;;;;;;349660;28;64432;-74
2021/06/07 00:51:21;;;;;;;5.72;3.70;;;;;;;;;;351755;28;1105;-72
2021/06/07 00:51:34;;;;;;;4.97;3.80;;;;;;;;;;350239;28;979;-72
2021/06/07 00:51:47;;;;;;;4.63;3.92;;;;;;;;;;350547;28;1128;-73
2021/06/07 00:51:59;;;;;;;6.85;3.80;;;;;;;;;;351289;28;18060;-73
2021/06/07 00:52:11;;;;;;;6.95;3.80;;;;;;;;;;351838;28;1025;-74
2021/06/07 00:52:25;;;;;;;6.32;3.90;;;;;;;;;;351892;28;1051;-73
2021/06/07 00:52:37;;;;;;;6.78;3.97;;;;;;;;;;350456;28;1664;-73
2021/06/07 00:53:12;;;;;;;7.22;4.00;;;;;;;;;;350479;28;1093;-73
2021/06/07 00:53:22;;;;;;;4.75;3.78;;;;;;;;;;349665;28;62536;-73
2021/06/07 00:53:34;;;;;;;5.32;3.65;;;;;;;;;;352617;28;1050;-73
2021/06/07 00:53:47;;;;;;;6.53;3.88;;;;;;;;;;353255;28;2049;-73
2021/06/07 00:54:00;;;;;;;6.22;3.88;;;;;;;;;;353154;28;1108;-74
2021/06/07 00:54:13;;;;;;;4.43;3.70;;;;;;;;;;353214;28;985;-72
2021/06/07 00:54:28;;;;;;;4.50;3.75;;;;;;;;;;350492;28;86955;-73
2021/06/07 00:54:40;;;;;;;4.75;3.92;;;;;;;;;;353337;28;1064;-74
2021/06/07 00:54:52;;;;;;;4.85;4.00;;;;;;;;;;353498;27;1085;-74
2021/06/07 00:55:05;;;;;;;5.22;3.80;;;;;;;;;;353306;28;1105;-75
2021/06/07 00:55:17;;;;;;;4.24;3.64;;;;;;;;;;353061;28;1293;-73
2021/06/07 00:55:31;;;;;;;4.30;3.60;;;;;;;;;;353274;27;1172;-74
2021/06/07 00:55:46;;;;;;;4.82;3.70;;;;;;;;;;352563;28;18226;-75
2021/06/07 00:56:00;;;;;;;5.00;3.88;;;;;;;;;;349191;28;41793;-73
2021/06/07 00:56:12;;;;;;;5.13;3.90;;;;;;;;;;348673;28;16839;-74
2021/06/07 00:56:25;;;;;;;5.80;3.95;;;;;;;;;;349286;28;1207;-75
2021/06/07 00:56:37;;;;;;;5.70;3.90;;;;;;;;;;349284;28;2071;-74
2021/06/07 00:56:49;;;;;;;5.95;3.97;;;;;;;;;;349320;28;990;-74
2021/06/07 00:57:02;;;;;;;6.10;3.97;;;;;;;;;;349781;28;1093;-73
2021/06/07 00:57:14;;;;;;;6.85;4.00;;;;;;;;;;350624;28;1053;-73
2021/06/07 00:57:26;;;;;;;6.82;3.83;;;;;;;;;;350781;28;1998;-75
2021/06/07 00:57:38;;;;;;;6.10;3.80;;;;;;;;;;350627;28;1448;-73
2021/06/07 00:57:50;;;;;;;6.40;3.95;;;;;;;;;;350444;28;1317;-73
2021/06/07 00:58:03;;;;;;;5.95;3.95;;;;;;;;;;351558;28;974;-74
2021/06/07 00:58:19;;;;;;;5.50;4.05;;;;;;;;;;352962;27;1104;-74
2021/06/07 00:58:33;;;;;;;5.15;3.88;;;;;;;;;;352773;27;64311;-74
2021/06/07 00:58:47;;;;;;;5.15;3.70;;;;;;;;;;354193;27;17148;-75
2021/06/07 00:58:59;;;;;;;5.72;3.65;;;;;;;;;;354488;27;16965;-74
2021/06/07 00:59:12;;;;;;;6.30;3.75;;;;;;;;;;353545;27;2301;-73
2021/06/07 00:59:24;;;;;;;6.18;3.67;;;;;;;;;;353469;27;1256;-74
2021/06/07 00:59:37;;;;;;;6.53;3.83;;;;;;;;;;353618;27;1025;-74
2021/06/07 00:59:50;;;;;;;5.80;3.63;;;;;;;;;;354169;27;15614;-73
2021/06/07 01:00:02;;;;;;;5.85;3.92;;;;;;;;;;353554;27;1125;-73
2021/06/07 01:00:15;;;;;;;5.82;4.00;;;;;;;;;;353476;27;1100;-74
2021/06/07 01:00:27;;;;;;;5.80;3.85;;;;;;;;;;353866;27;1045;-75
2021/06/07 01:00:39;;;;;;;4.75;3.60;;;;;;;;;;353298;27;1077;-73
2021/06/07 01:00:52;;;;;;;5.10;3.75;;;;;;;;;;352064;28;997;-73
2021/06/07 01:01:06;;;;;;;5.32;3.88;;;;;;;;;;352064;28;1923;-74
2021/06/07 01:01:20;;;;;;;4.88;4.03;;;;;;;;;;349924;28;16991;-74
2021/06/07 01:01:32;;;;;;;5.55;4.30;;;;;;;;;;348605;28;16203;-73
2021/06/07 01:01:45;;;;;;;5.82;4.35;;;;;;;;;;349378;28;1306;-73
2021/06/07 01:01:57;;;;;;;5.70;4.20;;;;;;;;;;350664;28;1086;-73
2021/06/07 01:02:09;;;;;;;5.95;3.95;;;;;;;;;;350547;28;1050;-74
2021/06/07 01:02:21;;;;;;;5.03;3.60;;;;;;;;;;350791;28;1053;-73
2021/06/07 01:02:33;;;;;;;4.40;3.70;;;;;;;;;;350620;28;1060;-75
2021/06/07 01:02:46;;;;;;;5.22;3.60;;;;;;;;;;350663;28;1080;-73
2021/06/07 01:02:59;;;;;;;5.25;3.60;;;;;;;;;;352087;28;1018;-73
2021/06/07 01:03:27;;;;;;;5.30;3.83;;;;;;;;;;351195;27;62633;-73
2021/06/07 01:03:40;;;;;;;4.93;3.72;;;;;;;;;;353490;27;1073;-74
2021/06/07 01:03:54;;;;;;;5.53;3.85;;;;;;;;;;350997;28;1117;-75
2021/06/07 01:04:07;;;;;;;5.78;3.72;;;;;;;;;;350461;28;16699;-73
2021/06/07 01:04:19;;;;;;;9.80;4.03;;;;;;;;;;350656;28;1198;-74
2021/06/07 01:04:31;;;;;;;10.18;4.40;;;;;;;;;;350531;28;1120;-73
2021/06/07 01:04:43;;;;;;;10.30;4.45;;;;;;;;;;350685;28;1359;-75
2021/06/07 01:04:55;;;;;;;5.65;4.03;;;;;;;;;;350665;28;1121;-74
2021/06/07 01:05:08;;;;;;;5.28;3.83;;;;;;;;;;349480;28;1034;-75
2021/06/07 01:05:20;;;;;;;4.70;3.70;;;;;;;;;;349312;28;1114;-73
2021/06/07 01:05:33;;;;;;;4.88;3.78;;;;;;;;;;349297;28;1096;-74
2021/06/07 01:05:45;;;;;;;5.05;3.90;;;;;;;;;;350520;28;1367;-73
2021/06/07 01:05:57;;;;;;;4.90;3.88;;;;;;;;;;351488;28;1176;-74
2021/06/07 01:06:10;;;;;;;4.20;3.72;;;;;;;;;;350778;28;1997;-73
2021/06/07 01:06:22;;;;;;;4.28;3.88;;;;;;;;;;350674;28;1082;-73
2021/06/07 01:06:36;;;;;;;5.18;3.90;;;;;;;;;;350683;28;1086;-73
2021/06/07 01:06:48;;;;;;;5.85;3.65;;;;;;;;;;350159;28;17204;-72
2021/06/07 01:07:01;;;;;;;5.18;3.70;;;;;;;;;;350584;28;1034;-73
2021/06/07 01:07:13;;;;;;;4.85;3.80;;;;;;;;;;351948;28;1065;-73
2021/06/07 01:07:25;;;;;;;5.05;3.88;;;;;;;;;;352086;28;1149;-73
2021/06/07 01:07:37;;;;;;;5.70;3.83;;;;;;;;;;352125;28;1280;-73
2021/06/07 01:07:49;;;;;;;5.97;3.92;;;;;;;;;;352047;28;1045;-74
2021/06/07 01:08:03;;;;;;;5.25;4.07;;;;;;;;;;353066;27;1017;-72
2021/06/07 01:08:35;;;;;;;5.38;4.20;;;;;;;;;;351639;27;63722;-73
2021/06/07 01:08:47;;;;;;;5.13;3.88;;;;;;;;;;351305;27;61644;-72
2021/06/07 01:08:59;;;;;;;5.06;3.72;;;;;;;;;;353340;27;1061;-71
2021/06/07 01:09:11;;;;;;;5.28;3.80;;;;;;;;;;353366;27;1139;-72
2021/06/07 01:09:23;;;;;;;4.85;3.90;;;;;;;;;;353626;27;1201;-72
2021/06/07 01:09:36;;;;;;;4.60;3.65;;;;;;;;;;353501;27;1085;-72
2021/06/07 01:09:48;;;;;;;5.22;3.67;;;;;;;;;;353551;27;1001;-73
2021/06/07 01:10:00;;;;;;;5.57;3.78;;;;;;;;;;353275;27;1076;-72
2021/06/07 01:10:12;;;;;;;6.07;4.00;;;;;;;;;;353453;27;1041;-72
2021/06/07 01:10:25;;;;;;;6.10;3.88;;;;;;;;;;352494;27;1678;-72
2021/06/07 01:10:38;;;;;;;6.50;3.83;;;;;;;;;;352357;27;1729;-72
2021/06/07 01:10:50;;;;;;;6.90;3.70;;;;;;;;;;351614;28;1091;-72
2021/06/07 01:11:03;;;;;;;6.88;3.67;;;;;;;;;;351971;28;1053;-72
2021/06/07 01:11:16;;;;;;;5.53;3.53;;;;;;;;;;352121;28;1147;-72
2021/06/07 01:11:28;;;;;;;5.90;3.78;;;;;;;;;;351960;28;1294;-73
2021/06/07 01:11:40;;;;;;;5.43;3.90;;;;;;;;;;352028;28;1097;-72
2021/06/07 01:11:52;;;;;;;4.38;3.83;;;;;;;;;;351928;28;1085;-72
2021/06/07 01:12:05;;;;;;;4.82;3.88;;;;;;;;;;352070;28;1112;-71
2021/06/07 01:12:17;;;;;;;5.57;4.03;;;;;;;;;;352048;28;1082;-71
2021/06/07 01:12:29;;;;;;;6.10;4.05;;;;;;;;;;353320;27;1083;-73
2021/06/07 01:12:41;;;;;;;6.03;3.90;;;;;;;;;;353582;27;1330;-73
2021/06/07 01:12:54;;;;;;;6.20;3.97;;;;;;;;;;353284;27;1096;-73
2021/06/07 01:13:06;;;;;;;6.25;4.03;;;;;;;;;;353339;27;1185;-72
2021/06/07 01:13:18;;;;;;;5.75;4.00;;;;;;;;;;353514;27;1113;-74
2021/06/07 01:13:30;;;;;;;5.60;3.88;;;;;;;;;;353604;27;1065;-73
2021/06/07 01:13:43;;;;;;;5.60;3.80;;;;;;;;;;353528;27;1061;-73
2021/06/07 01:13:55;;;;;;;5.20;3.70;;;;;;;;;;354340;27;1500;-72
2021/06/07 01:14:07;;;;;;;5.35;3.65;;;;;;;;;;354965;27;1132;-72
2021/06/07 01:14:19;;;;;;;5.47;3.53;;;;;;;;;;354865;27;1131;-73
2021/06/07 01:14:31;;;;;;;5.70;3.45;;;;;;;;;;354989;27;1213;-72
2021/06/07 01:14:43;;;;;;;4.55;3.58;;;;;;;;;;354757;27;1157;-73
2021/06/07 01:14:55;;;;;;;5.93;3.92;;;;;;;;;;354942;27;1116;-72
2021/06/07 01:15:09;;;;;;;6.85;3.90;;;;;;;;;;354782;27;1175;-74
2021/06/07 01:15:21;;;;;;;5.85;3.72;;;;;;;;;;354931;27;1079;-72
2021/06/07 01:15:33;;;;;;;4.60;3.78;;;;;;;;;;354930;27;1183;-73
2021/06/07 01:15:46;;;;;;;4.10;3.63;;;;;;;;;;354950;27;1098;-72
2021/06/07 01:15:59;;;;;;;5.40;3.67;;;;;;;;;;354304;27;1144;-72
2021/06/07 01:16:11;;;;;;;5.68;3.72;;;;;;;;;;353736;27;1105;-73
2021/06/07 01:16:24;;;;;;;4.40;3.83;;;;;;;;;;353587;27;1082;-73
2021/06/07 01:16:36;;;;;;;4.35;3.70;;;;;;;;;;353697;27;1194;-71
2021/06/07 01:16:49;;;;;;;4.32;3.80;;;;;;;;;;353587;27;1146;-72
2021/06/07 01:17:01;;;;;;;4.53;3.70;;;;;;;;;;354959;27;1695;-74
2021/06/07 01:17:14;;;;;;;4.90;3.80;;;;;;;;;;352085;28;1539;-72
2021/06/07 01:17:27;;;;;;;4.72;3.80;;;;;;;;;;351989;28;1138;-73
2021/06/07 01:17:40;;;;;;;5.75;3.92;;;;;;;;;;351888;28;1123;-72
2021/06/07 01:17:52;;;;;;;6.40;3.80;;;;;;;;;;352074;28;1016;-72
2021/06/07 01:18:04;;;;;;;5.82;3.80;;;;;;;;;;350554;28;2542;-72
2021/06/07 01:18:20;;;;;;;6.40;4.00;;;;;;;;;;350823;28;1168;-72
2021/06/07 01:18:32;;;;;;;7.07;3.95;;;;;;;;;;349273;28;39979;-72
2021/06/07 01:18:45;;;;;;;6.07;3.78;;;;;;;;;;350562;28;1153;-71
2021/06/07 01:18:57;;;;;;;5.53;3.72;;;;;;;;;;350505;28;1069;-71
2021/06/07 01:19:09;;;;;;;7.30;4.05;;;;;;;;;;351897;28;1627;-73
2021/06/07 01:19:22;;;;;;;7.70;4.10;;;;;;;;;;353484;27;1481;-71
2021/06/07 01:19:34;;;;;;;5.80;4.00;;;;;;;;;;353487;27;1252;-71
2021/06/07 01:19:47;;;;;;;4.75;3.70;;;;;;;;;;353510;27;1209;-72
2021/06/07 01:20:00;;;;;;;5.54;3.72;;;;;;;;;;353407;27;1111;-72